EST,Max TemperatureF,Mean TemperatureF,Min TemperatureF,Max Dew PointF,MeanDew PointF,Min DewpointF,Max Humidity, Mean Humidity, Min Humidity, Max Sea Level PressureIn, Mean Sea Level PressureIn, Min Sea Level PressureIn, Max VisibilityMiles, Mean VisibilityMiles, Min VisibilityMiles, Max Wind SpeedMPH, Mean Wind SpeedMPH, Max Gust SpeedMPH,PrecipitationIn, CloudCover, Events, WindDirDegrees
2014-2-1,83,79,75,73,71,70,94,82,69,30.12,30.08,30.04,10,10,9,10,5,15,0.00,1,,131
2014-2-2,83,79,75,71,70,68,87,76,65,30.13,30.07,30.03,10,10,10,14,8,18,0.00,0,,103
2014-2-3,84,80,76,74,73,72,88,79,69,30.09,30.05,30.01,10,10,6,12,7,17,0.00,0,,110
2014-2-4,83,80,76,73,72,71,94,82,69,30.10,30.05,30.02,10,10,10,14,9,22,0.00,2,,107
2014-2-5,85,81,77,73,72,71,85,77,69,30.10,30.05,30.02,10,10,9,13,7,21,0.00,2,,149
2014-2-6,84,79,74,72,70,66,87,76,65,30.11,30.07,30.03,10,10,5,9,5,13,T,2,Rain,121
2014-2-7,84,78,72,71,70,68,87,76,65,30.12,30.07,30.04,10,10,10,10,5,15,T,2,,116
2014-2-8,85,79,73,74,71,70,94,80,65,30.10,30.06,30.01,10,10,10,10,4,14,0.00,3,,69
2014-2-9,81,76,70,71,69,67,93,78,62,30.09,30.04,30.00,10,10,10,13,7,19,0.00,3,,2
2014-2-10,83,78,72,70,69,68,90,78,65,30.09,30.04,30.00,10,10,10,12,7,16,0.00,3,,30
2014-2-11,84,76,68,69,67,65,90,74,58,30.09,30.04,30.01,10,10,10,8,3,11,0.00,2,,51
2014-2-12,84,77,69,72,69,66,93,79,65,30.02,29.94,29.84,10,8,2,22,7,35,0.28,3,Rain-Thunderstorm,171
2014-2-13,77,72,66,70,63,53,97,79,61,30.00,29.88,29.80,10,10,6,21,12,30,0.03,5,Rain-Thunderstorm,286
2014-2-14,68,64,59,59,54,50,84,71,58,30.08,30.01,29.96,10,10,10,14,5,17,0.00,5,,21
2014-2-15,78,71,64,63,60,58,87,72,56,30.15,30.06,29.98,10,10,10,15,7,21,0.00,2,,296
2014-2-16,71,66,60,54,49,45,66,52,38,30.20,30.14,30.10,10,10,10,13,7,16,0.00,0,,360
2014-2-17,80,73,65,64,60,55,87,71,54,30.20,30.16,30.13,10,10,10,17,10,22,0.00,0,,49
2014-2-18,80,75,70,65,62,60,73,64,54,30.22,30.17,30.13,10,10,10,15,9,21,0.00,1,,87
2014-2-19,82,78,73,68,64,62,79,67,55,30.15,30.11,30.07,10,10,10,14,8,19,0.00,1,,102
2014-2-20,84,79,74,72,70,68,84,77,69,30.13,30.08,30.05,10,10,10,14,9,21,0.00,0,,105
2014-2-21,85,81,77,73,72,71,88,79,69,30.10,30.05,30.02,10,10,10,13,8,21,0.00,1,,138
2014-2-22,85,80,75,73,71,69,88,77,65,30.12,30.06,30.02,10,10,10,8,5,14,0.00,1,,129
2014-2-23,85,79,73,73,72,70,93,79,65,30.09,30.04,30.01,10,10,10,9,4,16,0.00,1,,106
2014-2-24,85,78,71,73,71,65,93,77,61,30.06,30.03,29.99,10,10,10,13,4,16,0.00,2,,314
2014-2-25,82,78,73,70,69,66,87,75,62,30.06,30.01,29.95,10,10,10,13,7,16,0.00,0,,347
2014-2-26,85,77,69,71,69,67,90,76,61,29.97,29.89,29.82,10,10,10,12,4,17,0.00,0,,239
2014-2-27,81,76,70,71,68,64,84,77,69,29.94,29.88,29.82,10,10,4,21,10,29,0.01,5,Rain,312
2014-2-28,75,72,68,66,63,59,87,78,68,30.09,30.01,29.91,10,10,6,12,6,15,0.08,5,Rain,348